sensor_id;sensor_type;location;lat;lon;timestamp;temperature;humidity
19930;DHT22;10127;47.780;9.606;2023-09-12T00:01:05;18.80;99.90
19930;DHT22;10127;47.780;9.606;2023-09-12T00:03:32;18.80;99.90
19930;DHT22;10127;47.780;9.606;2023-09-12T00:05:59;18.80;99.90
19930;DHT22;10127;47.780;9.606;2023-09-12T00:08:25;18.80;99.90
19930;DHT22;10127;47.780;9.606;2023-09-12T00:11:08;18.80;99.90
19930;DHT22;10127;47.780;9.606;2023-09-12T00:13:41;18.80;99.90
19930;DHT22;10127;47.780;9.606;2023-09-12T00:16:07;18.70;99.90
19930;DHT22;10127;47.780;9.606;2023-09-12T00:18:37;18.80;99.90
19930;DHT22;10127;47.780;9.606;2023-09-12T00:21:02;18.80;99.90
19930;DHT22;10127;47.780;9.606;2023-09-12T00:23:28;18.70;99.90
19930;DHT22;10127;47.780;9.606;2023-09-12T00:25:54;18.70;99.90
19930;DHT22;10127;47.780;9.606;2023-09-12T00:28:20;18.60;99.90
19930;DHT22;10127;47.780;9.606;2023-09-12T00:30:46;18.60;99.90
19930;DHT22;10127;47.780;9.606;2023-09-12T00:33:12;18.60;99.90
19930;DHT22;10127;47.780;9.606;2023-09-12T00:35:38;18.60;99.90
19930;DHT22;10127;47.780;9.606;2023-09-12T00:38:03;18.60;99.90
19930;DHT22;10127;47.780;9.606;2023-09-12T00:40:29;18.60;99.90
19930;DHT22;10127;47.780;9.606;2023-09-12T00:42:55;18.60;99.90
19930;DHT22;10127;47.780;9.606;2023-09-12T00:45:21;18.60;99.90
19930;DHT22;10127;47.780;9.606;2023-09-12T00:47:47;18.70;99.90
19930;DHT22;10127;47.780;9.606;2023-09-12T00:50:15;18.70;99.90
19930;DHT22;10127;47.780;9.606;2023-09-12T00:52:42;18.70;99.90
19930;DHT22;10127;47.780;9.606;2023-09-12T00:55:08;18.60;99.90
19930;DHT22;10127;47.780;9.606;2023-09-12T00:57:34;18.60;99.90
19930;DHT22;10127;47.780;9.606;2023-09-12T01:00:02;18.60;99.90
19930;DHT22;10127;47.780;9.606;2023-09-12T01:02:40;18.60;99.90
19930;DHT22;10127;47.780;9.606;2023-09-12T01:05:07;18.50;99.90
19930;DHT22;10127;47.780;9.606;2023-09-12T01:07:34;18.50;99.90
19930;DHT22;10127;47.780;9.606;2023-09-12T01:09:59;18.50;99.90
19930;DHT22;10127;47.780;9.606;2023-09-12T01:12:25;18.40;99.90
19930;DHT22;10127;47.780;9.606;2023-09-12T01:14:51;18.40;99.90
19930;DHT22;10127;47.780;9.606;2023-09-12T01:17:16;18.30;99.90
19930;DHT22;10127;47.780;9.606;2023-09-12T01:19:42;18.20;99.90
19930;DHT22;10127;47.780;9.606;2023-09-12T01:25:18;18.10;99.90
19930;DHT22;10127;47.780;9.606;2023-09-12T01:27:51;18.20;99.90
19930;DHT22;10127;47.780;9.606;2023-09-12T01:30:20;18.10;99.90
19930;DHT22;10127;47.780;9.606;2023-09-12T01:32:46;18.00;99.90
19930;DHT22;10127;47.780;9.606;2023-09-12T01:35:12;18.00;99.90
19930;DHT22;10127;47.780;9.606;2023-09-12T01:37:38;17.90;99.90
19930;DHT22;10127;47.780;9.606;2023-09-12T01:40:04;17.80;99.90
19930;DHT22;10127;47.780;9.606;2023-09-12T01:42:36;17.80;99.90
19930;DHT22;10127;47.780;9.606;2023-09-12T01:45:04;17.90;99.90
19930;DHT22;10127;47.780;9.606;2023-09-12T01:47:31;17.90;99.90
19930;DHT22;10127;47.780;9.606;2023-09-12T01:50:00;17.90;99.90
19930;DHT22;10127;47.780;9.606;2023-09-12T01:52:27;17.90;99.90
19930;DHT22;10127;47.780;9.606;2023-09-12T01:54:54;17.80;99.90
19930;DHT22;10127;47.780;9.606;2023-09-12T01:57:21;17.80;99.90
19930;DHT22;10127;47.780;9.606;2023-09-12T01:59:48;17.80;99.90
19930;DHT22;10127;47.780;9.606;2023-09-12T02:02:17;17.80;99.90
19930;DHT22;10127;47.780;9.606;2023-09-12T02:05:07;17.70;99.90
19930;DHT22;10127;47.780;9.606;2023-09-12T02:07:37;17.70;99.90
19930;DHT22;10127;47.780;9.606;2023-09-12T02:10:03;17.60;99.90
19930;DHT22;10127;47.780;9.606;2023-09-12T02:12:30;17.60;99.90
19930;DHT22;10127;47.780;9.606;2023-09-12T02:14:56;17.60;99.90
19930;DHT22;10127;47.780;9.606;2023-09-12T02:17:22;17.60;99.90
19930;DHT22;10127;47.780;9.606;2023-09-12T02:19:49;17.50;99.90
19930;DHT22;10127;47.780;9.606;2023-09-12T02:22:14;17.50;99.90
19930;DHT22;10127;47.780;9.606;2023-09-12T02:24:40;17.50;99.90
19930;DHT22;10127;47.780;9.606;2023-09-12T02:27:05;17.40;99.90
19930;DHT22;10127;47.780;9.606;2023-09-12T02:29:31;17.40;99.90
19930;DHT22;10127;47.780;9.606;2023-09-12T02:32:00;17.40;99.90
19930;DHT22;10127;47.780;9.606;2023-09-12T02:34:26;17.50;99.90
19930;DHT22;10127;47.780;9.606;2023-09-12T02:36:51;17.40;99.90
19930;DHT22;10127;47.780;9.606;2023-09-12T02:39:17;17.40;99.90
19930;DHT22;10127;47.780;9.606;2023-09-12T02:41:43;17.50;99.90
19930;DHT22;10127;47.780;9.606;2023-09-12T02:44:08;17.50;99.90
19930;DHT22;10127;47.780;9.606;2023-09-12T02:46:36;17.50;99.90
19930;DHT22;10127;47.780;9.606;2023-09-12T02:49:02;17.50;99.90
19930;DHT22;10127;47.780;9.606;2023-09-12T02:51:28;17.50;99.90
19930;DHT22;10127;47.780;9.606;2023-09-12T02:53:53;17.50;99.90
19930;DHT22;10127;47.780;9.606;2023-09-12T02:56:19;17.50;99.90
19930;DHT22;10127;47.780;9.606;2023-09-12T02:58:47;17.50;99.90
19930;DHT22;10127;47.780;9.606;2023-09-12T03:01:17;17.60;99.90
19930;DHT22;10127;47.780;9.606;2023-09-12T03:03:45;17.60;99.90
19930;DHT22;10127;47.780;9.606;2023-09-12T03:06:12;17.50;99.90
19930;DHT22;10127;47.780;9.606;2023-09-12T03:08:39;17.60;99.90
19930;DHT22;10127;47.780;9.606;2023-09-12T03:11:05;17.50;99.90
19930;DHT22;10127;47.780;9.606;2023-09-12T03:13:33;17.50;99.90
19930;DHT22;10127;47.780;9.606;2023-09-12T03:16:00;17.50;99.90
19930;DHT22;10127;47.780;9.606;2023-09-12T03:18:26;17.50;99.90
19930;DHT22;10127;47.780;9.606;2023-09-12T03:20:51;17.50;99.90
19930;DHT22;10127;47.780;9.606;2023-09-12T03:23:18;17.40;99.90
19930;DHT22;10127;47.780;9.606;2023-09-12T03:25:44;17.40;99.90
19930;DHT22;10127;47.780;9.606;2023-09-12T03:28:09;17.40;99.90
19930;DHT22;10127;47.780;9.606;2023-09-12T03:30:36;17.40;99.90
19930;DHT22;10127;47.780;9.606;2023-09-12T03:33:02;17.40;99.90
19930;DHT22;10127;47.780;9.606;2023-09-12T03:35:29;17.40;99.90
19930;DHT22;10127;47.780;9.606;2023-09-12T03:37:55;17.40;99.90
19930;DHT22;10127;47.780;9.606;2023-09-12T03:40:20;17.40;99.90
19930;DHT22;10127;47.780;9.606;2023-09-12T03:42:46;17.40;99.90
19930;DHT22;10127;47.780;9.606;2023-09-12T03:45:12;17.40;99.90
19930;DHT22;10127;47.780;9.606;2023-09-12T03:47:37;17.40;99.90
19930;DHT22;10127;47.780;9.606;2023-09-12T03:50:03;17.30;99.90
19930;DHT22;10127;47.780;9.606;2023-09-12T03:52:29;17.20;99.90
19930;DHT22;10127;47.780;9.606;2023-09-12T03:54:55;17.30;99.90
19930;DHT22;10127;47.780;9.606;2023-09-12T03:57:21;17.40;99.90
19930;DHT22;10127;47.780;9.606;2023-09-12T03:59:47;17.30;99.90
19930;DHT22;10127;47.780;9.606;2023-09-12T04:02:13;17.30;99.90
19930;DHT22;10127;47.780;9.606;2023-09-12T04:04:38;17.30;99.90
19930;DHT22;10127;47.780;9.606;2023-09-12T04:07:04;17.30;99.90
19930;DHT22;10127;47.780;9.606;2023-09-12T04:09:30;17.40;99.90
19930;DHT22;10127;47.780;9.606;2023-09-12T04:11:56;17.40;99.90
19930;DHT22;10127;47.780;9.606;2023-09-12T04:14:21;17.40;99.90
19930;DHT22;10127;47.780;9.606;2023-09-12T04:16:47;17.40;99.90
19930;DHT22;10127;47.780;9.606;2023-09-12T04:19:16;17.40;99.90
19930;DHT22;10127;47.780;9.606;2023-09-12T04:21:41;17.50;99.90
19930;DHT22;10127;47.780;9.606;2023-09-12T04:24:07;17.50;99.90
19930;DHT22;10127;47.780;9.606;2023-09-12T04:26:33;17.40;99.90
19930;DHT22;10127;47.780;9.606;2023-09-12T04:28:59;17.40;99.90
19930;DHT22;10127;47.780;9.606;2023-09-12T04:31:25;17.40;99.90
19930;DHT22;10127;47.780;9.606;2023-09-12T04:33:54;17.30;99.90
19930;DHT22;10127;47.780;9.606;2023-09-12T04:36:20;17.40;99.90
19930;DHT22;10127;47.780;9.606;2023-09-12T04:38:46;17.40;99.90
19930;DHT22;10127;47.780;9.606;2023-09-12T04:41:13;17.40;99.90
19930;DHT22;10127;47.780;9.606;2023-09-12T04:43:42;17.30;99.90
19930;DHT22;10127;47.780;9.606;2023-09-12T04:46:08;17.30;99.90
19930;DHT22;10127;47.780;9.606;2023-09-12T04:48:34;17.30;99.90
19930;DHT22;10127;47.780;9.606;2023-09-12T04:51:00;17.30;99.90
19930;DHT22;10127;47.780;9.606;2023-09-12T04:53:25;17.20;99.90
19930;DHT22;10127;47.780;9.606;2023-09-12T04:55:54;17.30;99.90
19930;DHT22;10127;47.780;9.606;2023-09-12T04:58:19;17.30;99.90
19930;DHT22;10127;47.780;9.606;2023-09-12T05:00:45;17.20;99.90
19930;DHT22;10127;47.780;9.606;2023-09-12T05:03:11;17.00;99.90
19930;DHT22;10127;47.780;9.606;2023-09-12T05:05:37;16.90;99.90
19930;DHT22;10127;47.780;9.606;2023-09-12T05:08:03;16.90;99.90
19930;DHT22;10127;47.780;9.606;2023-09-12T05:10:29;17.00;99.90
19930;DHT22;10127;47.780;9.606;2023-09-12T05:12:55;17.00;99.90
19930;DHT22;10127;47.780;9.606;2023-09-12T05:15:21;17.00;99.90
19930;DHT22;10127;47.780;9.606;2023-09-12T05:17:46;17.00;99.90
19930;DHT22;10127;47.780;9.606;2023-09-12T05:20:12;17.00;99.90
19930;DHT22;10127;47.780;9.606;2023-09-12T05:22:45;17.00;99.90
19930;DHT22;10127;47.780;9.606;2023-09-12T05:25:11;17.00;99.90
19930;DHT22;10127;47.780;9.606;2023-09-12T05:27:36;17.10;99.90
19930;DHT22;10127;47.780;9.606;2023-09-12T05:30:02;17.20;99.90
19930;DHT22;10127;47.780;9.606;2023-09-12T05:32:35;17.20;99.90
19930;DHT22;10127;47.780;9.606;2023-09-12T05:35:02;17.30;99.90
19930;DHT22;10127;47.780;9.606;2023-09-12T05:37:28;17.30;99.90
19930;DHT22;10127;47.780;9.606;2023-09-12T05:39:54;17.20;99.90
19930;DHT22;10127;47.780;9.606;2023-09-12T05:42:19;17.30;99.90
19930;DHT22;10127;47.780;9.606;2023-09-12T05:44:50;17.20;99.90
19930;DHT22;10127;47.780;9.606;2023-09-12T05:47:19;17.20;99.90
19930;DHT22;10127;47.780;9.606;2023-09-12T05:49:45;17.20;99.90
19930;DHT22;10127;47.780;9.606;2023-09-12T05:52:11;17.30;99.90
19930;DHT22;10127;47.780;9.606;2023-09-12T05:54:37;17.30;99.90
19930;DHT22;10127;47.780;9.606;2023-09-12T05:57:03;17.40;99.90
19930;DHT22;10127;47.780;9.606;2023-09-12T05:59:29;17.60;99.90
19930;DHT22;10127;47.780;9.606;2023-09-12T06:01:54;17.60;99.90
19930;DHT22;10127;47.780;9.606;2023-09-12T06:04:21;17.70;99.90
19930;DHT22;10127;47.780;9.606;2023-09-12T06:06:47;17.70;99.90
19930;DHT22;10127;47.780;9.606;2023-09-12T06:09:12;17.80;99.90
19930;DHT22;10127;47.780;9.606;2023-09-12T06:11:38;17.80;99.90
19930;DHT22;10127;47.780;9.606;2023-09-12T06:14:03;17.90;99.90
19930;DHT22;10127;47.780;9.606;2023-09-12T06:16:29;18.00;99.90
19930;DHT22;10127;47.780;9.606;2023-09-12T06:18:55;18.10;99.90
19930;DHT22;10127;47.780;9.606;2023-09-12T06:21:21;18.20;99.90
19930;DHT22;10127;47.780;9.606;2023-09-12T06:23:47;18.30;99.90
19930;DHT22;10127;47.780;9.606;2023-09-12T06:26:14;18.30;99.90
19930;DHT22;10127;47.780;9.606;2023-09-12T06:28:40;18.20;99.90
19930;DHT22;10127;47.780;9.606;2023-09-12T06:31:12;18.30;99.90
19930;DHT22;10127;47.780;9.606;2023-09-12T06:33:38;18.40;99.90
19930;DHT22;10127;47.780;9.606;2023-09-12T06:36:04;18.50;99.90
19930;DHT22;10127;47.780;9.606;2023-09-12T06:38:29;18.60;99.90
19930;DHT22;10127;47.780;9.606;2023-09-12T06:40:55;18.70;99.90
19930;DHT22;10127;47.780;9.606;2023-09-12T06:43:21;18.80;99.90
19930;DHT22;10127;47.780;9.606;2023-09-12T06:45:47;18.90;99.90
19930;DHT22;10127;47.780;9.606;2023-09-12T06:48:15;18.90;99.90
19930;DHT22;10127;47.780;9.606;2023-09-12T06:50:41;19.00;99.90
19930;DHT22;10127;47.780;9.606;2023-09-12T06:53:07;19.20;99.90
19930;DHT22;10127;47.780;9.606;2023-09-12T06:55:33;19.30;99.90
19930;DHT22;10127;47.780;9.606;2023-09-12T06:57:59;19.50;99.90
19930;DHT22;10127;47.780;9.606;2023-09-12T07:00:25;19.70;99.90
19930;DHT22;10127;47.780;9.606;2023-09-12T07:02:52;19.80;99.90
19930;DHT22;10127;47.780;9.606;2023-09-12T07:05:17;20.00;99.90
19930;DHT22;10127;47.780;9.606;2023-09-12T07:07:43;20.20;99.90
19930;DHT22;10127;47.780;9.606;2023-09-12T07:10:10;20.20;99.90
19930;DHT22;10127;47.780;9.606;2023-09-12T07:12:36;20.30;99.90
19930;DHT22;10127;47.780;9.606;2023-09-12T07:15:01;20.30;99.90
19930;DHT22;10127;47.780;9.606;2023-09-12T07:17:34;20.40;99.90
19930;DHT22;10127;47.780;9.606;2023-09-12T07:20:00;20.50;99.90
19930;DHT22;10127;47.780;9.606;2023-09-12T07:22:26;20.70;99.90
19930;DHT22;10127;47.780;9.606;2023-09-12T07:24:51;20.80;99.90
19930;DHT22;10127;47.780;9.606;2023-09-12T07:27:17;21.00;99.90
19930;DHT22;10127;47.780;9.606;2023-09-12T07:29:42;21.20;99.90
19930;DHT22;10127;47.780;9.606;2023-09-12T07:32:08;21.30;99.90
19930;DHT22;10127;47.780;9.606;2023-09-12T07:34:34;21.20;99.90
19930;DHT22;10127;47.780;9.606;2023-09-12T07:36:59;21.30;99.90
19930;DHT22;10127;47.780;9.606;2023-09-12T07:39:25;21.50;99.90
19930;DHT22;10127;47.780;9.606;2023-09-12T07:41:50;21.60;99.90
19930;DHT22;10127;47.780;9.606;2023-09-12T07:44:16;21.70;99.90
19930;DHT22;10127;47.780;9.606;2023-09-12T07:46:43;21.70;99.90
19930;DHT22;10127;47.780;9.606;2023-09-12T07:49:09;21.70;99.80
19930;DHT22;10127;47.780;9.606;2023-09-12T07:51:35;21.80;99.80
19930;DHT22;10127;47.780;9.606;2023-09-12T07:54:01;21.90;99.90
19930;DHT22;10127;47.780;9.606;2023-09-12T07:56:26;22.10;99.50
19930;DHT22;10127;47.780;9.606;2023-09-12T07:58:52;22.20;99.00
19930;DHT22;10127;47.780;9.606;2023-09-12T08:01:24;22.20;99.00
19930;DHT22;10127;47.780;9.606;2023-09-12T08:03:49;22.20;99.00
19930;DHT22;10127;47.780;9.606;2023-09-12T08:06:15;22.30;99.10
19930;DHT22;10127;47.780;9.606;2023-09-12T08:08:41;22.30;98.80
19930;DHT22;10127;47.780;9.606;2023-09-12T08:11:13;22.40;98.80
19930;DHT22;10127;47.780;9.606;2023-09-12T08:13:38;22.40;98.80
19930;DHT22;10127;47.780;9.606;2023-09-12T08:16:04;22.40;99.00
19930;DHT22;10127;47.780;9.606;2023-09-12T08:18:30;22.40;99.10
19930;DHT22;10127;47.780;9.606;2023-09-12T08:20:56;22.40;99.20
19930;DHT22;10127;47.780;9.606;2023-09-12T08:23:22;22.40;99.60
19930;DHT22;10127;47.780;9.606;2023-09-12T08:25:48;22.30;99.70
19930;DHT22;10127;47.780;9.606;2023-09-12T08:28:14;22.30;99.90
19930;DHT22;10127;47.780;9.606;2023-09-12T08:30:39;22.40;99.90
19930;DHT22;10127;47.780;9.606;2023-09-12T08:33:05;22.40;99.90
19930;DHT22;10127;47.780;9.606;2023-09-12T08:35:32;22.40;99.90
19930;DHT22;10127;47.780;9.606;2023-09-12T08:37:58;22.50;99.90
19930;DHT22;10127;47.780;9.606;2023-09-12T08:40:24;22.50;99.90
19930;DHT22;10127;47.780;9.606;2023-09-12T08:42:51;22.60;99.90
19930;DHT22;10127;47.780;9.606;2023-09-12T08:45:18;22.60;99.90
19930;DHT22;10127;47.780;9.606;2023-09-12T08:47:46;22.80;99.90
19930;DHT22;10127;47.780;9.606;2023-09-12T08:50:15;22.80;99.70
19930;DHT22;10127;47.780;9.606;2023-09-12T08:52:46;22.90;99.50
19930;DHT22;10127;47.780;9.606;2023-09-12T08:55:13;22.90;99.40
19930;DHT22;10127;47.780;9.606;2023-09-12T08:57:43;22.90;99.10
19930;DHT22;10127;47.780;9.606;2023-09-12T09:00:10;22.90;99.10
19930;DHT22;10127;47.780;9.606;2023-09-12T09:02:40;22.90;99.20
19930;DHT22;10127;47.780;9.606;2023-09-12T09:05:07;22.90;99.30
19930;DHT22;10127;47.780;9.606;2023-09-12T09:07:39;23.00;99.10
19930;DHT22;10127;47.780;9.606;2023-09-12T09:10:06;23.00;99.00
19930;DHT22;10127;47.780;9.606;2023-09-12T09:12:33;23.20;98.90
19930;DHT22;10127;47.780;9.606;2023-09-12T09:14:59;23.20;98.90
19930;DHT22;10127;47.780;9.606;2023-09-12T09:17:44;23.30;98.10
19930;DHT22;10127;47.780;9.606;2023-09-12T09:20:29;23.30;97.30
19930;DHT22;10127;47.780;9.606;2023-09-12T09:22:59;23.30;97.50
19930;DHT22;10127;47.780;9.606;2023-09-12T09:25:25;23.40;97.70
19930;DHT22;10127;47.780;9.606;2023-09-12T09:27:50;23.50;97.80
19930;DHT22;10127;47.780;9.606;2023-09-12T09:30:16;23.50;97.70
19930;DHT22;10127;47.780;9.606;2023-09-12T09:32:43;23.60;97.80
19930;DHT22;10127;47.780;9.606;2023-09-12T09:35:10;23.60;97.90
19930;DHT22;10127;47.780;9.606;2023-09-12T09:37:37;23.70;98.00
19930;DHT22;10127;47.780;9.606;2023-09-12T09:40:08;23.70;98.10
19930;DHT22;10127;47.780;9.606;2023-09-12T09:42:35;23.70;98.20
19930;DHT22;10127;47.780;9.606;2023-09-12T09:45:01;23.70;98.00
19930;DHT22;10127;47.780;9.606;2023-09-12T09:47:27;23.80;98.00
19930;DHT22;10127;47.780;9.606;2023-09-12T09:49:53;23.80;98.00
19930;DHT22;10127;47.780;9.606;2023-09-12T09:52:25;23.80;97.90
19930;DHT22;10127;47.780;9.606;2023-09-12T09:54:52;23.80;97.90
19930;DHT22;10127;47.780;9.606;2023-09-12T09:57:18;23.90;98.20
19930;DHT22;10127;47.780;9.606;2023-09-12T09:59:49;24.00;97.90
19930;DHT22;10127;47.780;9.606;2023-09-12T10:02:18;24.00;97.60
19930;DHT22;10127;47.780;9.606;2023-09-12T10:04:48;24.10;97.40
19930;DHT22;10127;47.780;9.606;2023-09-12T10:07:16;24.20;97.10
19930;DHT22;10127;47.780;9.606;2023-09-12T10:09:43;24.10;97.10
19930;DHT22;10127;47.780;9.606;2023-09-12T10:12:10;24.20;97.10
19930;DHT22;10127;47.780;9.606;2023-09-12T10:14:39;24.20;96.80
19930;DHT22;10127;47.780;9.606;2023-09-12T10:17:05;24.30;96.80
19930;DHT22;10127;47.780;9.606;2023-09-12T10:19:54;24.30;97.00
19930;DHT22;10127;47.780;9.606;2023-09-12T10:22:25;24.40;96.70
19930;DHT22;10127;47.780;9.606;2023-09-12T10:24:53;24.50;96.20
19930;DHT22;10127;47.780;9.606;2023-09-12T10:27:22;24.60;96.40
19930;DHT22;10127;47.780;9.606;2023-09-12T10:29:49;24.60;95.90
19930;DHT22;10127;47.780;9.606;2023-09-12T10:32:19;24.70;95.50
19930;DHT22;10127;47.780;9.606;2023-09-12T10:34:48;24.80;95.60
19930;DHT22;10127;47.780;9.606;2023-09-12T10:37:19;24.90;95.70
19930;DHT22;10127;47.780;9.606;2023-09-12T10:39:49;25.00;95.70
19930;DHT22;10127;47.780;9.606;2023-09-12T10:42:30;25.10;95.40
19930;DHT22;10127;47.780;9.606;2023-09-12T10:44:59;25.30;95.10
19930;DHT22;10127;47.780;9.606;2023-09-12T10:47:26;25.30;94.70
19930;DHT22;10127;47.780;9.606;2023-09-12T10:49:52;25.30;94.70
19930;DHT22;10127;47.780;9.606;2023-09-12T10:52:28;25.40;94.70
19930;DHT22;10127;47.780;9.606;2023-09-12T10:54:54;25.40;94.80
19930;DHT22;10127;47.780;9.606;2023-09-12T10:57:20;25.40;94.60
19930;DHT22;10127;47.780;9.606;2023-09-12T11:02:34;25.30;94.50
19930;DHT22;10127;47.780;9.606;2023-09-12T11:05:04;25.40;94.50
19930;DHT22;10127;47.780;9.606;2023-09-12T11:12:42;25.60;93.70
19930;DHT22;10127;47.780;9.606;2023-09-12T11:15:08;25.60;93.50
19930;DHT22;10127;47.780;9.606;2023-09-12T11:17:49;25.70;93.80
19930;DHT22;10127;47.780;9.606;2023-09-12T11:20:16;25.80;93.10
19930;DHT22;10127;47.780;9.606;2023-09-12T11:22:44;26.00;92.10
19930;DHT22;10127;47.780;9.606;2023-09-12T11:25:23;26.00;91.10
19930;DHT22;10127;47.780;9.606;2023-09-12T11:30:17;25.90;92.40
19930;DHT22;10127;47.780;9.606;2023-09-12T11:32:46;26.00;92.40
19930;DHT22;10127;47.780;9.606;2023-09-12T11:35:13;26.00;92.00
19930;DHT22;10127;47.780;9.606;2023-09-12T11:37:40;26.10;92.60
19930;DHT22;10127;47.780;9.606;2023-09-12T11:42:41;26.20;92.10
19930;DHT22;10127;47.780;9.606;2023-09-12T11:45:08;26.40;91.70
19930;DHT22;10127;47.780;9.606;2023-09-12T11:47:34;26.40;91.60
19930;DHT22;10127;47.780;9.606;2023-09-12T11:50:05;26.40;91.50
19930;DHT22;10127;47.780;9.606;2023-09-12T11:52:30;26.70;91.00
19930;DHT22;10127;47.780;9.606;2023-09-12T11:54:56;26.90;90.60
19930;DHT22;10127;47.780;9.606;2023-09-12T11:57:22;27.00;90.40
19930;DHT22;10127;47.780;9.606;2023-09-12T11:59:48;27.00;90.50
19930;DHT22;10127;47.780;9.606;2023-09-12T12:02:14;27.00;89.80
19930;DHT22;10127;47.780;9.606;2023-09-12T12:04:40;27.10;90.10
19930;DHT22;10127;47.780;9.606;2023-09-12T12:07:07;27.20;90.80
19930;DHT22;10127;47.780;9.606;2023-09-12T12:09:33;27.20;90.40
19930;DHT22;10127;47.780;9.606;2023-09-12T12:14:35;27.30;89.90
19930;DHT22;10127;47.780;9.606;2023-09-12T12:17:11;27.30;90.20
19930;DHT22;10127;47.780;9.606;2023-09-12T12:19:38;27.30;89.70
19930;DHT22;10127;47.780;9.606;2023-09-12T12:22:04;27.50;88.40
19930;DHT22;10127;47.780;9.606;2023-09-12T12:24:37;27.70;87.70
19930;DHT22;10127;47.780;9.606;2023-09-12T12:27:04;27.70;86.70
19930;DHT22;10127;47.780;9.606;2023-09-12T12:29:30;27.70;88.00
19930;DHT22;10127;47.780;9.606;2023-09-12T12:32:00;27.90;88.00
19930;DHT22;10127;47.780;9.606;2023-09-12T12:34:27;27.90;88.10
19930;DHT22;10127;47.780;9.606;2023-09-12T12:36:54;28.00;87.80
19930;DHT22;10127;47.780;9.606;2023-09-12T12:39:21;28.10;86.10
19930;DHT22;10127;47.780;9.606;2023-09-12T12:41:48;28.30;85.20
19930;DHT22;10127;47.780;9.606;2023-09-12T12:44:13;28.20;84.00
19930;DHT22;10127;47.780;9.606;2023-09-12T12:46:54;28.20;84.20
19930;DHT22;10127;47.780;9.606;2023-09-12T12:49:21;28.30;83.80
19930;DHT22;10127;47.780;9.606;2023-09-12T12:51:48;28.40;84.70
19930;DHT22;10127;47.780;9.606;2023-09-12T12:54:15;28.50;83.90
19930;DHT22;10127;47.780;9.606;2023-09-12T12:56:40;28.30;81.20
19930;DHT22;10127;47.780;9.606;2023-09-12T12:59:07;28.20;82.00
19930;DHT22;10127;47.780;9.606;2023-09-12T13:01:38;28.10;80.10
19930;DHT22;10127;47.780;9.606;2023-09-12T13:04:07;28.00;80.90
19930;DHT22;10127;47.780;9.606;2023-09-12T13:06:33;28.10;83.60
19930;DHT22;10127;47.780;9.606;2023-09-12T13:09:02;28.20;82.20
19930;DHT22;10127;47.780;9.606;2023-09-12T13:11:30;28.40;81.50
19930;DHT22;10127;47.780;9.606;2023-09-12T13:13:56;28.50;78.30
19930;DHT22;10127;47.780;9.606;2023-09-12T13:16:22;28.50;78.90
19930;DHT22;10127;47.780;9.606;2023-09-12T13:18:47;28.60;76.70
19930;DHT22;10127;47.780;9.606;2023-09-12T13:21:13;28.60;75.10
19930;DHT22;10127;47.780;9.606;2023-09-12T13:23:39;28.70;74.80
19930;DHT22;10127;47.780;9.606;2023-09-12T13:26:07;28.90;72.60
19930;DHT22;10127;47.780;9.606;2023-09-12T13:28:32;29.10;72.80
19930;DHT22;10127;47.780;9.606;2023-09-12T13:30:58;29.20;70.50
19930;DHT22;10127;47.780;9.606;2023-09-12T13:33:24;29.20;71.20
19930;DHT22;10127;47.780;9.606;2023-09-12T13:35:50;29.30;74.60
19930;DHT22;10127;47.780;9.606;2023-09-12T13:38:16;29.40;76.00
19930;DHT22;10127;47.780;9.606;2023-09-12T13:40:43;29.50;76.00
19930;DHT22;10127;47.780;9.606;2023-09-12T13:43:09;29.50;75.70
19930;DHT22;10127;47.780;9.606;2023-09-12T13:45:36;29.70;75.00
19930;DHT22;10127;47.780;9.606;2023-09-12T13:48:04;29.80;75.80
19930;DHT22;10127;47.780;9.606;2023-09-12T13:50:31;30.10;75.30
19930;DHT22;10127;47.780;9.606;2023-09-12T13:53:01;30.10;68.80
19930;DHT22;10127;47.780;9.606;2023-09-12T13:55:33;30.00;67.40
19930;DHT22;10127;47.780;9.606;2023-09-12T13:58:03;29.90;66.50
19930;DHT22;10127;47.780;9.606;2023-09-12T14:00:30;30.00;69.00
19930;DHT22;10127;47.780;9.606;2023-09-12T14:02:56;30.00;69.10
19930;DHT22;10127;47.780;9.606;2023-09-12T14:05:21;29.90;68.70
19930;DHT22;10127;47.780;9.606;2023-09-12T14:07:47;29.70;67.70
19930;DHT22;10127;47.780;9.606;2023-09-12T14:10:13;29.60;71.10
19930;DHT22;10127;47.780;9.606;2023-09-12T14:12:39;29.40;75.60
19930;DHT22;10127;47.780;9.606;2023-09-12T14:15:05;29.30;76.70
19930;DHT22;10127;47.780;9.606;2023-09-12T14:17:32;29.20;78.30
19930;DHT22;10127;47.780;9.606;2023-09-12T14:19:57;29.10;79.00
19930;DHT22;10127;47.780;9.606;2023-09-12T14:22:23;28.90;79.50
19930;DHT22;10127;47.780;9.606;2023-09-12T14:24:49;28.80;80.60
19930;DHT22;10127;47.780;9.606;2023-09-12T14:27:14;28.60;81.10
19930;DHT22;10127;47.780;9.606;2023-09-12T14:29:40;28.50;81.30
19930;DHT22;10127;47.780;9.606;2023-09-12T14:32:05;28.40;81.20
19930;DHT22;10127;47.780;9.606;2023-09-12T14:34:31;28.30;81.10
19930;DHT22;10127;47.780;9.606;2023-09-12T14:36:58;28.10;82.00
19930;DHT22;10127;47.780;9.606;2023-09-12T14:39:24;28.00;83.20
19930;DHT22;10127;47.780;9.606;2023-09-12T14:41:50;28.00;84.40
19930;DHT22;10127;47.780;9.606;2023-09-12T14:44:23;28.00;85.60
19930;DHT22;10127;47.780;9.606;2023-09-12T14:46:48;27.80;86.80
19930;DHT22;10127;47.780;9.606;2023-09-12T14:49:15;27.70;87.30
19930;DHT22;10127;47.780;9.606;2023-09-12T14:51:44;27.70;88.40
19930;DHT22;10127;47.780;9.606;2023-09-12T14:54:10;27.60;88.70
19930;DHT22;10127;47.780;9.606;2023-09-12T14:56:36;27.50;89.70
19930;DHT22;10127;47.780;9.606;2023-09-12T14:59:03;27.30;90.90
19930;DHT22;10127;47.780;9.606;2023-09-12T15:01:29;27.10;92.00
19930;DHT22;10127;47.780;9.606;2023-09-12T15:03:55;27.00;92.20
19930;DHT22;10127;47.780;9.606;2023-09-12T15:06:21;26.80;92.10
19930;DHT22;10127;47.780;9.606;2023-09-12T15:08:47;26.60;91.50
19930;DHT22;10127;47.780;9.606;2023-09-12T15:11:12;26.30;91.50
19930;DHT22;10127;47.780;9.606;2023-09-12T15:13:38;26.10;90.90
19930;DHT22;10127;47.780;9.606;2023-09-12T15:16:04;25.90;90.80
19930;DHT22;10127;47.780;9.606;2023-09-12T15:18:30;25.80;91.30
19930;DHT22;10127;47.780;9.606;2023-09-12T15:20:57;25.60;91.10
19930;DHT22;10127;47.780;9.606;2023-09-12T15:23:22;25.40;91.20
19930;DHT22;10127;47.780;9.606;2023-09-12T15:25:51;25.30;91.70
19930;DHT22;10127;47.780;9.606;2023-09-12T15:28:17;25.00;90.50
19930;DHT22;10127;47.780;9.606;2023-09-12T15:30:43;24.90;91.30
19930;DHT22;10127;47.780;9.606;2023-09-12T15:33:09;24.80;90.70
19930;DHT22;10127;47.780;9.606;2023-09-12T15:35:35;24.60;90.60
19930;DHT22;10127;47.780;9.606;2023-09-12T15:38:00;24.40;91.20
19930;DHT22;10127;47.780;9.606;2023-09-12T15:40:27;24.30;91.80
19930;DHT22;10127;47.780;9.606;2023-09-12T15:42:53;24.20;92.00
19930;DHT22;10127;47.780;9.606;2023-09-12T15:45:18;24.00;92.50
19930;DHT22;10127;47.780;9.606;2023-09-12T15:47:46;23.90;92.50